Time;durP1;ratioP1;P1;durP2;ratioP2;P2;SDS_P1;SDS_P2;PMS_P1;PMS_P2;Temp;Humidity;BMP_temperature;BMP_pressure;BME280_temperature;BME280_humidity;BME280_pressure;Samples;Min_cycle;Max_cycle;Signal;HPM_P1;HPM_P2
2022/07/29 00:02:20;;;;;;;8.67;3.77;;;;;;;16.29;57.31;101696.28;5060238;28;20166;-67
2022/07/29 00:04:46;;;;;;;5.47;3.43;;;;;;;15.89;58.52;101693.56;5060120;28;20185;-69
2022/07/29 00:07:11;;;;;;;4.73;3.53;;;;;;;15.70;58.96;101697.88;5060117;28;20170;-68
2022/07/29 00:09:37;;;;;;;5.33;3.53;;;;;;;15.96;58.34;101696.22;5060184;28;20572;-67
2022/07/29 00:12:02;;;;;;;6.83;3.50;;;;;;;15.78;58.24;101689.13;5059734;28;20177;-67
2022/07/29 00:14:28;;;;;;;4.20;3.53;;;;;;;15.65;58.80;101693.47;5059851;28;20187;-68
2022/07/29 00:16:53;;;;;;;4.33;3.63;;;;;;;15.73;58.91;101693.47;5059925;28;20173;-68
2022/07/29 00:19:19;;;;;;;4.40;4.00;;;;;;;15.62;58.44;101687.31;5060397;28;20215;-67
2022/07/29 00:21:44;;;;;;;4.30;3.70;;;;;;;16.02;58.04;101687.47;5059683;28;20228;-67
2022/07/29 00:24:10;;;;;;;4.73;4.23;;;;;;;15.97;57.47;101678.69;5059534;28;20505;-67
2022/07/29 00:26:35;;;;;;;7.63;3.73;;;;;;;15.15;60.06;101694.06;5060122;28;20185;-68
2022/07/29 00:29:02;;;;;;;3.87;3.50;;;;;;;14.97;61.03;101692.22;5059611;28;20256;-68
2022/07/29 00:31:27;;;;;;;4.20;3.80;;;;;;;15.25;60.22;101685.41;5058828;28;20174;-69
2022/07/29 00:33:53;;;;;;;5.17;3.80;;;;;;;15.58;59.47;101678.53;5059874;28;20432;-68
2022/07/29 00:36:20;;;;;;;5.00;3.77;;;;;;;15.22;59.57;101680.13;5059458;28;20193;-69
2022/07/29 00:38:46;;;;;;;5.33;3.97;;;;;;;15.29;59.68;101674.03;5059325;28;20165;-68
2022/07/29 00:41:11;;;;;;;5.77;4.03;;;;;;;15.12;60.25;101673.06;5059749;28;20780;-67
2022/07/29 00:43:37;;;;;;;4.30;3.90;;;;;;;15.13;60.39;101669.56;5059200;28;20193;-68
2022/07/29 00:46:03;;;;;;;4.63;4.13;;;;;;;15.04;60.03;101669.50;5059511;28;20180;-68
2022/07/29 00:48:28;;;;;;;5.70;3.80;;;;;;;15.04;60.24;101664.25;5059678;28;20169;-68
2022/07/29 00:50:54;;;;;;;7.57;4.10;;;;;;;15.06;60.01;101667.75;5058540;28;20288;-68
2022/07/29 00:53:21;;;;;;;5.37;3.90;;;;;;;15.04;60.24;101667.75;5058154;28;20489;-67
2022/07/29 00:55:47;;;;;;;6.00;4.13;;;;;;;14.98;60.41;101670.34;5059468;28;20677;-67
2022/07/29 00:58:13;;;;;;;5.30;3.80;;;;;;;14.76;60.36;101667.59;5059004;28;20422;-68
2022/07/29 01:00:40;;;;;;;5.07;3.57;;;;;;;15.30;58.99;101662.66;5059140;28;20459;-66
2022/07/29 01:03:06;;;;;;;3.70;3.40;;;;;;;15.22;59.18;101663.47;5058990;28;20383;-68
2022/07/29 01:05:31;;;;;;;6.30;4.30;;;;;;;15.73;58.04;101651.41;5058975;28;20469;-67
2022/07/29 01:07:57;;;;;;;3.97;3.57;;;;;;;15.41;58.44;101654.81;5058192;28;20169;-67
2022/07/29 01:10:23;;;;;;;7.10;4.87;;;;;;;14.92;59.75;101654.56;5059461;28;20162;-67
2022/07/29 01:12:50;;;;;;;4.70;3.80;;;;;;;15.02;59.92;101655.47;5058080;28;20510;-67
2022/07/29 01:15:15;;;;;;;8.17;4.60;;;;;;;14.86;60.11;101650.16;5058705;28;20166;-67
2022/07/29 01:18:11;;;;;;;4.20;3.80;;;;;;;14.92;60.57;101646.66;5058608;28;20474;-67
2022/07/29 01:20:58;;;;;;;6.43;3.67;;;;;;;14.88;60.41;101647.53;5053655;28;20209;-67
2022/07/29 01:23:35;;;;;;;4.43;3.80;;;;;;;14.98;60.30;101639.72;5058677;28;20396;-67
2022/07/29 01:26:25;;;;;;;3.83;3.50;;;;;;;15.12;60.25;101642.41;5058568;28;20472;-67
2022/07/29 01:29:13;;;;;;;5.73;3.90;;;;;;;15.27;59.82;101641.59;5058591;28;20651;-68
2022/07/29 01:31:54;;;;;;;5.17;4.00;;;;;;;14.87;60.63;101641.41;5057740;28;20400;-67
2022/07/29 01:34:46;;;;;;;7.00;4.20;;;;;;;14.91;60.61;101637.03;5058492;28;20796;-67
2022/07/29 01:37:38;;;;;;;6.40;3.80;;;;;;;15.37;60.22;101625.88;5057520;28;20482;-67
2022/07/29 01:40:08;;;;;;;4.80;3.83;;;;;;;14.79;61.13;101628.22;5057653;28;20747;-67
2022/07/29 01:42:44;;;;;;;4.13;3.63;;;;;;;14.73;61.29;101629.94;5057511;28;20424;-68
2022/07/29 01:45:16;;;;;;;4.53;3.80;;;;;;;15.26;60.02;101626.75;5058180;28;20386;-69
2022/07/29 01:47:58;;;;;;;5.37;4.03;;;;;;;15.58;59.38;101615.44;5058144;28;20847;-67
2022/07/29 01:50:31;;;;;;;4.70;3.73;;;;;;;15.25;59.66;101621.44;5057420;28;20805;-68
2022/07/29 01:52:59;;;;;;;5.60;3.70;;;;;;;14.89;61.43;101623.03;5057878;28;20719;-67
2022/07/29 01:55:28;;;;;;;6.20;4.40;;;;;;;15.20;60.62;101621.44;5057658;28;20740;-67
2022/07/29 01:57:53;;;;;;;5.80;4.23;;;;;;;14.94;61.15;101610.81;5057355;28;20393;-67
2022/07/29 02:00:19;;;;;;;6.33;4.30;;;;;;;15.11;61.17;101611.78;5057219;28;20438;-67
2022/07/29 02:02:47;;;;;;;7.63;4.00;;;;;;;14.90;61.52;101604.66;5057714;28;20189;-67
2022/07/29 02:05:14;;;;;;;8.30;4.00;;;;;;;14.97;61.53;101603.81;5057108;28;20408;-67
2022/07/29 02:07:42;;;;;;;7.23;4.30;;;;;;;14.93;61.53;101604.66;5057171;28;20409;-67
2022/07/29 02:10:09;;;;;;;5.10;3.90;;;;;;;15.10;61.19;101599.50;5057382;28;20415;-68
2022/07/29 02:12:35;;;;;;;6.93;4.33;;;;;;;14.75;62.24;101607.22;5057915;28;20854;-67
2022/07/29 02:15:02;;;;;;;4.30;3.90;;;;;;;15.06;61.73;101605.63;5057775;28;20462;-67
2022/07/29 02:17:32;;;;;;;5.00;4.03;;;;;;;15.27;61.19;101604.81;5062658;28;20382;-68
2022/07/29 02:20:01;;;;;;;4.50;4.10;;;;;;;14.76;62.67;101603.69;5064480;28;20382;-66
2022/07/29 02:22:29;;;;;;;4.30;3.90;;;;;;;14.87;62.80;101603.75;5064336;28;20398;-68
2022/07/29 02:24:55;;;;;;;4.67;4.23;;;;;;;15.18;61.58;101603.91;5064323;28;20393;-67
2022/07/29 02:27:22;;;;;;;5.20;4.20;;;;;;;15.04;61.41;101601.22;5064433;28;20386;-67
2022/07/29 02:29:49;;;;;;;5.07;3.97;;;;;;;14.79;62.74;101590.59;5063949;28;20165;-66
2022/07/29 02:32:15;;;;;;;5.67;4.30;;;;;;;15.09;61.51;101594.25;5063551;28;20458;-67
2022/07/29 02:34:41;;;;;;;4.80;4.17;;;;;;;15.13;61.54;101589.03;5064112;28;20386;-69
2022/07/29 02:37:09;;;;;;;4.70;4.30;;;;;;;15.19;61.49;101587.28;5063956;28;20400;-68
2022/07/29 02:39:35;;;;;;;7.33;4.60;;;;;;;15.36;61.01;101582.09;5063596;28;20173;-67
2022/07/29 02:42:07;;;;;;;6.53;4.80;;;;;;;15.43;60.39;101590.00;5063421;28;20938;-67
2022/07/29 02:44:34;;;;;;;4.43;4.03;;;;;;;15.41;61.08;101585.63;5063398;28;20383;-68
2022/07/29 02:47:26;;;;;;;4.23;3.83;;;;;;;14.79;62.53;101593.22;5063604;28;20804;-67
2022/07/29 02:49:56;;;;;;;6.60;4.43;;;;;;;14.80;62.51;101587.09;5063746;28;20395;-67
2022/07/29 02:52:32;;;;;;;5.43;4.60;;;;;;;15.14;61.70;101588.16;5063523;28;20397;-67
2022/07/29 02:55:02;;;;;;;6.30;4.47;;;;;;;15.18;61.25;101589.06;5063185;28;20553;-67
2022/07/29 02:57:35;;;;;;;6.20;4.33;;;;;;;15.23;62.19;101581.19;5063480;28;20431;-66
2022/07/29 03:00:10;;;;;;;6.70;4.10;;;;;;;15.35;61.18;101575.09;5064039;28;20408;-67
2022/07/29 03:02:39;;;;;;;4.97;3.93;;;;;;;15.29;61.55;101581.22;5064089;28;20424;-67
2022/07/29 03:05:08;;;;;;;6.77;4.30;;;;;;;14.95;61.60;101581.94;5063183;28;20468;-68
2022/07/29 03:07:34;;;;;;;5.23;4.10;;;;;;;15.10;61.70;101578.50;5064333;28;20444;-68
2022/07/29 03:10:00;;;;;;;8.40;4.37;;;;;;;15.46;60.97;101574.22;5063934;28;20382;-66
2022/07/29 03:12:26;;;;;;;4.30;3.80;;;;;;;15.50;60.78;101575.13;5063251;28;20413;-67
2022/07/29 03:14:52;;;;;;;6.83;5.37;;;;;;;14.98;62.44;101578.47;5063168;28;20169;-68
2022/07/29 03:17:18;;;;;;;4.67;4.23;;;;;;;14.98;62.17;101578.47;5063462;28;20251;-67
2022/07/29 03:19:43;;;;;;;6.27;3.97;;;;;;;15.54;61.18;101581.28;5063930;28;20408;-69
2022/07/29 03:22:09;;;;;;;7.60;5.30;;;;;;;15.18;61.14;101578.53;5064038;28;20206;-67
2022/07/29 03:24:36;;;;;;;4.43;3.60;;;;;;;15.58;60.58;101583.03;5063597;28;20180;-67
2022/07/29 03:27:02;;;;;;;6.17;4.00;;;;;;;14.80;62.56;101582.75;5063719;28;20177;-67
2022/07/29 03:29:27;;;;;;;5.43;4.20;;;;;;;14.87;62.62;101580.13;5059377;28;20482;-67
2022/07/29 03:31:53;;;;;;;5.03;4.20;;;;;;;15.32;61.40;101571.56;5060083;28;20411;-68
2022/07/29 03:34:19;;;;;;;4.10;3.70;;;;;;;15.16;61.83;101565.38;5060715;28;20166;-66
2022/07/29 03:36:44;;;;;;;7.40;4.30;;;;;;;15.15;61.44;101576.78;5060767;28;20223;-66
2022/07/29 03:39:10;;;;;;;6.13;4.60;;;;;;;15.45;61.22;101568.97;5061259;28;20240;-66
2022/07/29 03:41:38;;;;;;;5.00;4.10;;;;;;;15.16;62.09;101562.75;5060686;28;20603;-69
2022/07/29 03:44:05;;;;;;;5.80;4.23;;;;;;;15.44;61.31;101557.59;5059871;28;20383;-68
2022/07/29 03:46:31;;;;;;;5.60;4.30;;;;;;;15.43;61.38;101562.88;5060258;28;20398;-67
2022/07/29 03:49:00;;;;;;;11.23;4.40;;;;;;;15.26;61.27;101563.69;5059783;28;20419;-69
2022/07/29 03:51:25;;;;;;;8.60;4.67;;;;;;;15.61;60.14;101557.66;5060463;28;20435;-71
2022/07/29 03:53:51;;;;;;;4.33;3.93;;;;;;;15.38;61.26;101565.44;5059679;28;20434;-67
2022/07/29 03:56:17;;;;;;;4.07;3.47;;;;;;;15.83;59.96;101563.84;5060267;28;20182;-69
2022/07/29 03:58:44;;;;;;;7.87;4.20;;;;;;;15.74;59.84;101563.78;5059804;28;20181;-70
2022/07/29 04:01:09;;;;;;;5.47;4.10;;;;;;;15.48;61.36;101567.25;5059478;28;20205;-69
2022/07/29 04:03:35;;;;;;;5.87;3.90;;;;;;;15.56;60.66;101569.00;5060240;28;20431;-68
2022/07/29 04:06:09;;;;;;;8.40;4.00;;;;;;;15.41;61.08;101576.00;5060589;28;20304;-69
2022/07/29 04:08:34;;;;;;;4.57;4.13;;;;;;;15.79;59.77;101562.06;5060105;28;20469;-68
2022/07/29 04:11:00;;;;;;;5.50;4.13;;;;;;;15.89;59.85;101562.97;5058815;28;20410;-70
2022/07/29 04:13:26;;;;;;;8.10;4.00;;;;;;;15.71;60.36;101563.78;5060305;28;20186;-69
2022/07/29 04:15:51;;;;;;;4.40;4.00;;;;;;;15.79;60.27;101563.78;5059782;28;20435;-68
2022/07/29 04:18:16;;;;;;;7.57;4.43;;;;;;;15.97;59.13;101566.47;5059771;28;20182;-68
2022/07/29 04:20:42;;;;;;;6.97;4.33;;;;;;;15.99;59.68;101564.75;5060104;28;20200;-69
2022/07/29 04:23:07;;;;;;;4.60;4.00;;;;;;;15.75;59.80;101560.28;5059767;28;20206;-68
2022/07/29 04:25:33;;;;;;;5.17;4.13;;;;;;;15.74;59.70;101561.16;5059708;28;20181;-68
2022/07/29 04:28:01;;;;;;;4.90;4.10;;;;;;;15.92;59.51;101560.31;5060223;28;20198;-68
2022/07/29 04:30:27;;;;;;;6.57;4.70;;;;;;;15.50;61.01;101564.63;5059780;28;20248;-68
2022/07/29 04:32:52;;;;;;;6.27;4.30;;;;;;;15.52;60.55;101555.00;5059632;28;20397;-68
2022/07/29 04:35:19;;;;;;;4.53;4.13;;;;;;;15.63;60.78;101555.03;5059905;28;20396;-69
2022/07/29 04:37:44;;;;;;;5.47;4.10;;;;;;;15.44;61.86;101559.38;5059472;28;20460;-66
2022/07/29 04:40:10;;;;;;;7.43;4.40;;;;;;;15.64;60.40;101556.75;5059214;28;20401;-66
2022/07/29 04:42:35;;;;;;;6.37;4.70;;;;;;;15.69;60.44;101569.94;5059815;28;20181;-65
2022/07/29 04:45:01;;;;;;;5.60;4.10;;;;;;;15.68;60.82;101555.03;5059239;28;20223;-68
2022/07/29 04:47:26;;;;;;;5.60;5.07;;;;;;;15.64;60.97;101562.91;5059256;28;20189;-67
2022/07/29 04:49:52;;;;;;;4.93;4.13;;;;;;;15.85;60.14;101555.94;5059842;28;20216;-68
2022/07/29 04:52:17;;;;;;;4.50;4.10;;;;;;;15.88;59.69;101555.94;5059308;28;20278;-67
2022/07/29 04:54:42;;;;;;;4.53;4.13;;;;;;;16.18;59.43;101562.09;5059058;28;20229;-68
2022/07/29 04:57:08;;;;;;;7.13;4.23;;;;;;;16.99;57.29;101566.34;5059695;28;20177;-68
2022/07/29 04:59:33;;;;;;;5.47;4.20;;;;;;;16.71;57.89;101564.63;5059129;28;20184;-68
2022/07/29 05:01:59;;;;;;;5.20;4.60;;;;;;;16.37;58.46;101560.31;5059089;28;20213;-67
2022/07/29 05:04:24;;;;;;;6.07;4.20;;;;;;;15.63;60.34;101560.28;5059280;28;20216;-67
2022/07/29 05:06:50;;;;;;;5.33;4.20;;;;;;;16.60;58.12;101562.03;5058992;28;20181;-66
2022/07/29 05:09:15;;;;;;;5.43;4.50;;;;;;;15.74;59.84;101563.78;5059055;28;20188;-67
2022/07/29 05:11:40;;;;;;;5.57;4.30;;;;;;;16.69;58.50;101567.28;5059693;28;20480;-67
2022/07/29 05:14:05;;;;;;;5.03;4.30;;;;;;;17.13;56.65;101563.66;5058796;28;20275;-67
2022/07/29 05:16:31;;;;;;;4.97;4.40;;;;;;;16.26;58.61;101562.09;5058943;28;20178;-67
2022/07/29 05:18:56;;;;;;;7.10;3.90;;;;;;;16.29;58.60;101564.72;5059038;28;20197;-66
2022/07/29 05:21:22;;;;;;;5.60;4.43;;;;;;;16.15;59.65;101576.09;5058651;28;20284;-65
2022/07/29 05:23:47;;;;;;;8.97;4.93;;;;;;;16.65;58.65;101568.16;5058451;28;20178;-68
2022/07/29 05:26:13;;;;;;;8.73;4.50;;;;;;;16.38;59.01;101562.06;5058813;28;20512;-68
2022/07/29 05:28:38;;;;;;;5.63;4.20;;;;;;;16.77;57.21;101565.50;5055999;28;20181;-64
2022/07/29 05:31:03;;;;;;;4.43;4.03;;;;;;;16.87;57.67;101570.75;5047259;28;20174;-65
2022/07/29 05:33:29;;;;;;;5.43;4.00;;;;;;;16.86;57.25;101571.63;5048308;28;20181;-67
2022/07/29 05:35:54;;;;;;;6.17;4.00;;;;;;;17.68;55.16;101572.13;5058259;28;20264;-68
2022/07/29 05:38:19;;;;;;;12.60;4.60;;;;;;;18.07;53.99;101575.41;5043624;28;20617;-67
2022/07/29 05:40:45;;;;;;;5.40;4.20;;;;;;;17.22;56.01;101567.13;5038690;28;20556;-67
2022/07/29 05:43:10;;;;;;;6.00;4.13;;;;;;;15.95;58.97;101578.75;5038252;28;20201;-67
2022/07/29 05:45:35;;;;;;;12.53;5.07;;;;;;;17.41;56.67;101573.19;5042105;28;20180;-68
2022/07/29 05:48:01;;;;;;;8.73;4.67;;;;;;;17.51;55.55;101565.22;5058383;28;20182;-69
2022/07/29 05:50:26;;;;;;;7.23;4.33;;;;;;;16.89;56.86;101580.44;5057910;28;20169;-69
2022/07/29 05:52:52;;;;;;;4.63;4.23;;;;;;;18.77;52.15;101572.97;5057738;28;20169;-69
2022/07/29 05:55:20;;;;;;;5.70;4.30;;;;;;;18.49;52.64;101570.63;5058527;28;20252;-70
2022/07/29 05:57:45;;;;;;;4.30;3.90;;;;;;;18.69;51.04;101569.56;5058089;28;20489;-69
2022/07/29 06:00:11;;;;;;;6.57;3.93;;;;;;;18.69;52.34;101562.50;5057871;28;20522;-69
2022/07/29 06:02:37;;;;;;;8.27;4.13;;;;;;;17.90;54.66;101569.34;5054474;28;20245;-70
2022/07/29 06:05:02;;;;;;;4.80;3.70;;;;;;;18.71;51.92;101564.25;5037131;28;20265;-69
2022/07/29 06:07:27;;;;;;;5.00;4.20;;;;;;;18.47;53.46;101564.50;5037923;28;20177;-71
2022/07/29 06:09:53;;;;;;;5.57;4.30;;;;;;;17.39;56.01;101577.59;5038318;28;20217;-67
2022/07/29 06:12:19;;;;;;;6.10;4.20;;;;;;;19.75;51.34;101559.38;5037966;28;20528;-68
2022/07/29 06:14:45;;;;;;;8.50;4.50;;;;;;;22.37;44.44;101553.13;5037827;28;20194;-66
2022/07/29 06:17:11;;;;;;;6.93;4.07;;;;;;;22.92;42.42;101547.19;5038486;28;20722;-66
2022/07/29 06:19:37;;;;;;;7.97;3.80;;;;;;;21.51;46.25;101556.09;5052877;28;20181;-66
2022/07/29 06:22:02;;;;;;;5.43;3.77;;;;;;;20.45;48.21;101558.25;5056926;28;20520;-68
2022/07/29 06:24:28;;;;;;;6.13;3.93;;;;;;;19.47;50.22;101561.53;5057997;28;20165;-68
2022/07/29 06:26:53;;;;;;;4.50;3.97;;;;;;;19.28;51.71;101568.84;5057782;28;20272;-68
2022/07/29 06:29:18;;;;;;;9.93;4.50;;;;;;;19.04;52.39;101552.44;5057719;28;20184;-68
2022/07/29 06:31:44;;;;;;;7.03;4.23;;;;;;;18.59;53.50;101563.50;5058200;28;20166;-68
2022/07/29 06:34:09;;;;;;;6.90;4.33;;;;;;;18.34;54.44;101573.41;5057620;28;20544;-66
2022/07/29 06:36:36;;;;;;;4.17;3.77;;;;;;;18.41;54.69;101568.97;5057540;28;20256;-66
2022/07/29 06:39:05;;;;;;;4.90;3.77;;;;;;;18.98;52.52;101563.97;5058049;28;20166;-65
2022/07/29 06:41:30;;;;;;;5.50;4.00;;;;;;;19.84;51.16;101559.25;5057659;28;20473;-65
2022/07/29 06:43:56;;;;;;;6.37;4.43;;;;;;;20.87;48.47;101553.03;5057620;28;20391;-65
2022/07/29 06:46:21;;;;;;;7.43;4.00;;;;;;;20.41;47.88;101552.13;5057969;28;20162;-66
2022/07/29 06:48:47;;;;;;;4.47;4.07;;;;;;;21.95;44.98;101549.78;5057520;28;20173;-66
2022/07/29 06:51:12;;;;;;;6.97;4.37;;;;;;;19.94;49.35;101564.41;5057774;28;20200;-66
2022/07/29 06:53:39;;;;;;;5.40;4.13;;;;;;;19.43;51.38;101557.19;5057569;28;20243;-67
2022/07/29 06:56:06;;;;;;;5.60;4.03;;;;;;;20.71;47.71;101560.41;5057549;28;20614;-68
2022/07/29 06:58:31;;;;;;;4.27;3.87;;;;;;;21.18;47.49;101541.78;5057756;28;20515;-68
2022/07/29 07:00:58;;;;;;;5.10;4.17;;;;;;;20.72;48.04;101540.97;5057361;28;20959;-67
2022/07/29 07:03:23;;;;;;;5.30;4.00;;;;;;;21.89;45.55;101539.28;5059804;28;20570;-68
2022/07/29 07:05:49;;;;;;;5.43;4.00;;;;;;;20.33;48.64;101552.25;5061485;28;20416;-67
2022/07/29 07:08:15;;;;;;;4.40;4.00;;;;;;;20.88;47.05;101544.19;5061084;28;20173;-68
2022/07/29 07:10:41;;;;;;;7.90;4.70;;;;;;;21.16;47.05;101543.59;5061128;28;20169;-67
2022/07/29 07:13:07;;;;;;;6.37;3.77;;;;;;;20.94;47.86;101545.84;5061722;28;20477;-68
2022/07/29 07:15:32;;;;;;;5.10;4.03;;;;;;;20.57;48.87;101549.19;5061064;28;20173;-69
2022/07/29 07:17:58;;;;;;;5.73;4.20;;;;;;;21.66;45.99;101541.63;5060816;28;20184;-69
2022/07/29 07:20:24;;;;;;;7.73;4.50;;;;;;;21.33;46.91;101544.09;5061181;28;20288;-69
2022/07/29 07:22:50;;;;;;;5.23;3.80;;;;;;;20.69;47.92;101549.84;5060883;28;20180;-68
2022/07/29 07:25:17;;;;;;;6.63;4.30;;;;;;;20.67;48.81;101541.03;5060733;28;20495;-70
2022/07/29 07:27:43;;;;;;;6.20;4.13;;;;;;;21.60;46.54;101532.94;5061049;28;20543;-69
2022/07/29 07:30:09;;;;;;;10.20;4.30;;;;;;;20.19;49.81;101539.28;5060801;28;20435;-69
2022/07/29 07:32:35;;;;;;;4.90;4.13;;;;;;;19.46;51.54;101531.59;5060629;28;20416;-69
2022/07/29 07:35:02;;;;;;;5.13;4.40;;;;;;;20.02;50.32;101533.38;5060847;28;20481;-69
2022/07/29 07:37:28;;;;;;;6.20;4.27;;;;;;;20.12;49.34;101529.69;5060433;28;20806;-68
2022/07/29 07:39:53;;;;;;;12.10;4.53;;;;;;;21.02;48.62;101533.28;5060615;28;20458;-68
2022/07/29 07:42:19;;;;;;;9.23;4.50;;;;;;;20.19;49.29;101530.47;5060862;28;20224;-68
2022/07/29 07:44:45;;;;;;;8.60;4.90;;;;;;;20.73;49.35;101539.19;5060293;28;20193;-68
2022/07/29 07:47:14;;;;;;;7.00;4.60;;;;;;;21.08;48.09;101532.28;5060359;28;20189;-67
2022/07/29 07:49:40;;;;;;;4.70;3.93;;;;;;;20.34;49.39;101540.75;5060680;28;20477;-67
2022/07/29 07:52:05;;;;;;;11.20;4.17;;;;;;;20.80;48.55;101541.69;5060623;28;20408;-68
2022/07/29 07:54:31;;;;;;;5.27;3.93;;;;;;;20.58;49.01;101532.38;5060068;28;20307;-66
2022/07/29 07:56:56;;;;;;;4.47;4.10;;;;;;;21.00;47.90;101530.69;5060821;28;20223;-66
2022/07/29 07:59:21;;;;;;;5.07;3.83;;;;;;;21.85;45.38;101528.75;5060147;28;20436;-66
2022/07/29 08:01:47;;;;;;;4.53;3.90;;;;;;;20.98;47.33;101536.91;5059562;28;20288;-67
2022/07/29 08:04:12;;;;;;;6.37;4.23;;;;;;;21.92;45.29;101528.59;5076139;28;20189;-67
2022/07/29 08:06:37;;;;;;;4.90;4.10;;;;;;;22.24;43.99;101529.56;5079823;28;20564;-66
2022/07/29 08:09:04;;;;;;;6.63;4.60;;;;;;;22.44;44.00;101518.44;5079641;28;20204;-67
2022/07/29 08:11:30;;;;;;;4.20;3.80;;;;;;;22.57;43.76;101510.97;5080046;28;20437;-66
2022/07/29 08:13:55;;;;;;;5.57;4.17;;;;;;;23.13;42.88;101508.47;5078704;28;20423;-66
2022/07/29 08:16:21;;;;;;;5.17;3.87;;;;;;;22.16;44.09;101509.41;5079916;28;20411;-67
2022/07/29 08:18:46;;;;;;;5.50;3.90;;;;;;;23.53;42.72;101503.69;5072123;28;20173;-69
2022/07/29 08:21:13;;;;;;;8.50;4.30;;;;;;;25.00;39.58;101502.06;5059834;28;20527;-68
2022/07/29 08:23:39;;;;;;;7.60;4.43;;;;;;;23.58;42.69;101506.19;5059603;28;20209;-68
2022/07/29 08:26:12;;;;;;;7.33;3.77;;;;;;;24.71;40.36;101511.19;5060061;28;20419;-68
2022/07/29 08:28:38;;;;;;;7.17;4.10;;;;;;;24.25;40.37;101508.38;5059525;28;20181;-69
2022/07/29 08:31:05;;;;;;;6.90;3.87;;;;;;;24.26;40.63;101511.91;5059386;28;20657;-69
2022/07/29 08:33:30;;;;;;;4.40;4.00;;;;;;;25.71;38.45;101504.59;5059457;28;20431;-69
2022/07/29 08:35:55;;;;;;;4.90;3.90;;;;;;;27.58;34.82;101499.78;5059593;28;20412;-69
2022/07/29 08:38:21;;;;;;;5.40;4.10;;;;;;;29.00;32.23;101492.38;5059827;28;20192;-70
2022/07/29 08:40:47;;;;;;;7.40;4.50;;;;;;;29.90;31.19;101494.34;5059507;28;20296;-70
2022/07/29 08:43:12;;;;;;;4.77;3.97;;;;;;;31.27;28.95;101493.94;5059327;28;20445;-69
2022/07/29 08:45:44;;;;;;;7.97;3.80;;;;;;;30.59;29.71;101495.59;5059721;28;20169;-68
2022/07/29 08:48:09;;;;;;;5.27;3.60;;;;;;;29.99;29.95;101498.28;5059312;28;20181;-67
2022/07/29 08:50:35;;;;;;;4.63;3.50;;;;;;;27.13;33.84;101508.16;5059271;28;20681;-67
2022/07/29 08:53:01;;;;;;;6.33;3.53;;;;;;;29.87;30.54;101499.88;5058859;28;20176;-67
2022/07/29 08:55:27;;;;;;;5.70;4.00;;;;;;;26.53;34.33;101509.13;5058377;28;20408;-67
2022/07/29 08:57:52;;;;;;;3.50;3.20;;;;;;;26.96;34.44;101508.09;5059188;28;20219;-68
2022/07/29 09:00:17;;;;;;;5.70;3.37;;;;;;;25.72;37.19;101516.13;5059078;28;20558;-67
2022/07/29 09:02:45;;;;;;;5.07;3.60;;;;;;;28.69;32.43;101496.75;5058955;28;20508;-68
2022/07/29 09:05:10;;;;;;;5.30;3.10;;;;;;;28.16;32.57;101487.94;5059198;28;20181;-67
2022/07/29 09:07:36;;;;;;;4.10;3.70;;;;;;;29.31;31.56;101488.81;5058873;28;20417;-69
2022/07/29 09:10:02;;;;;;;7.40;3.47;;;;;;;28.19;33.02;101493.13;5058865;28;20223;-68
2022/07/29 09:12:29;;;;;;;6.10;3.47;;;;;;;25.83;36.46;101505.88;5058476;28;20405;-67
2022/07/29 09:14:54;;;;;;;5.27;3.53;;;;;;;26.87;34.69;101502.25;5058545;28;20416;-68
2022/07/29 09:17:39;;;;;;;4.30;3.70;;;;;;;25.34;37.33;101505.22;5058878;28;20427;-68
2022/07/29 09:20:13;;;;;;;5.93;3.63;;;;;;;24.69;38.45;101502.38;5058671;28;20617;-68
2022/07/29 09:22:39;;;;;;;8.90;3.60;;;;;;;25.15;38.75;101500.59;5058725;28;20442;-69
2022/07/29 09:25:05;;;;;;;3.90;3.50;;;;;;;24.86;39.03;101499.94;5058740;28;20404;-69
2022/07/29 09:27:30;;;;;;;7.10;4.47;;;;;;;23.60;40.99;101499.91;5057697;28;20170;-69
2022/07/29 09:30:00;;;;;;;6.90;4.00;;;;;;;25.67;37.38;101494.97;5058734;28;20173;-69
2022/07/29 09:32:26;;;;;;;8.10;4.03;;;;;;;25.66;37.51;101487.03;5058851;28;20172;-69
2022/07/29 09:35:19;;;;;;;25.20;5.50;;;;;;;24.13;40.11;101498.16;5058271;28;20466;-69
2022/07/29 09:37:45;;;;;;;3.93;3.53;;;;;;;25.58;37.97;101489.16;5058359;28;20432;-68
2022/07/29 09:40:12;;;;;;;7.50;3.80;;;;;;;23.43;40.92;101508.41;5058327;28;20499;-70
2022/07/29 09:42:38;;;;;;;4.87;3.60;;;;;;;23.14;41.21;101499.56;5058500;28;20753;-69
2022/07/29 09:45:04;;;;;;;3.80;3.50;;;;;;;23.88;40.15;101499.88;5058675;28;20440;-68
2022/07/29 09:47:46;;;;;;;4.70;3.93;;;;;;;24.24;39.99;101500.44;5057447;28;20170;-69
2022/07/29 09:50:12;;;;;;;4.80;3.80;;;;;;;25.23;37.48;101492.28;5058129;28;20173;-68
2022/07/29 09:52:49;;;;;;;4.50;3.63;;;;;;;24.25;38.17;101497.72;5058238;28;20458;-68
2022/07/29 09:55:15;;;;;;;5.60;4.33;;;;;;;24.85;39.00;101500.00;5058006;28;20501;-67
2022/07/29 09:57:41;;;;;;;7.70;3.70;;;;;;;24.48;39.50;101504.03;5058120;28;20712;-67
2022/07/29 10:00:15;;;;;;;4.80;3.67;;;;;;;24.99;38.56;101503.03;5056748;28;20416;-68
2022/07/29 10:02:45;;;;;;;5.87;4.03;;;;;;;23.74;39.69;101501.22;5037578;28;20206;-68
2022/07/29 10:05:22;;;;;;;7.97;3.67;;;;;;;23.32;40.29;101506.09;5037714;28;20421;-70
2022/07/29 10:07:56;;;;;;;4.10;3.30;;;;;;;24.79;38.17;101494.88;5037854;28;20431;-68
2022/07/29 10:10:26;;;;;;;3.67;3.27;;;;;;;24.69;38.42;101489.03;5037917;28;20452;-68
2022/07/29 10:12:57;;;;;;;5.20;3.50;;;;;;;25.38;37.01;101485.50;5038057;28;20478;-69
2022/07/29 10:15:24;;;;;;;4.40;3.60;;;;;;;25.92;36.26;101495.75;5037768;28;20417;-72
2022/07/29 10:17:51;;;;;;;5.60;3.73;;;;;;;24.01;39.01;101491.47;5037436;28;20507;-68
2022/07/29 10:20:17;;;;;;;4.43;3.40;;;;;;;25.41;37.88;101481.84;5057716;28;20408;-68
2022/07/29 10:22:43;;;;;;;16.70;6.10;;;;;;;23.39;39.10;101490.81;5058092;28;20427;-69
2022/07/29 10:25:09;;;;;;;5.77;3.70;;;;;;;24.45;37.56;101481.00;5057629;28;20441;-70
2022/07/29 10:27:35;;;;;;;13.10;4.80;;;;;;;23.69;38.86;101477.41;5057823;28;20420;-69
2022/07/29 10:30:01;;;;;;;3.80;3.50;;;;;;;24.83;36.67;101467.16;5058159;28;20176;-69
2022/07/29 10:32:40;;;;;;;8.20;3.93;;;;;;;24.32;37.71;101471.72;5057744;28;20408;-67
2022/07/29 10:35:18;;;;;;;4.50;3.73;;;;;;;23.94;39.71;101473.97;5057146;28;20176;-68
2022/07/29 10:37:49;;;;;;;7.47;3.50;;;;;;;25.63;36.50;101473.81;5059057;28;20423;-68
2022/07/29 10:43:22;;;;;;;5.03;3.80;;;;;;;25.05;37.02;101475.22;5061135;28;20426;-69
2022/07/29 10:45:48;;;;;;;9.50;3.60;;;;;;;24.34;38.71;101465.41;5060868;28;20430;-70
2022/07/29 10:48:14;;;;;;;4.40;3.40;;;;;;;23.95;39.02;101462.38;5060814;28;20502;-69
2022/07/29 10:51:12;;;;;;;8.50;3.60;;;;;;;24.68;37.80;101468.63;5060791;28;20216;-69
2022/07/29 10:53:47;;;;;;;5.00;3.47;;;;;;;25.68;36.20;101474.47;5060600;28;20221;-70
2022/07/29 10:56:33;;;;;;;4.23;3.40;;;;;;;26.05;35.28;101460.44;5061611;28;20416;-70
2022/07/29 10:59:17;;;;;;;5.40;4.10;;;;;;;25.52;36.04;101472.47;5060592;28;20431;-68
2022/07/29 11:01:43;;;;;;;3.90;3.60;;;;;;;24.46;36.91;101460.56;5061259;28;20456;-70
2022/07/29 11:04:09;;;;;;;4.40;3.43;;;;;;;25.07;36.54;101462.69;5061158;28;20431;-70
2022/07/29 11:07:02;;;;;;;4.77;3.30;;;;;;;26.98;33.67;101447.31;5061232;28;20169;-69
2022/07/29 11:09:30;;;;;;;4.47;3.10;;;;;;;28.62;31.37;101452.38;5061416;28;20263;-71
2022/07/29 11:11:58;;;;;;;4.93;3.30;;;;;;;28.98;29.97;101443.25;5061856;28;20493;-69
2022/07/29 11:14:51;;;;;;;6.43;3.57;;;;;;;30.06;28.87;101440.47;5061406;28;20423;-70
2022/07/29 11:17:16;;;;;;;3.43;3.13;;;;;;;27.67;31.46;101454.66;5060992;28;20404;-70
2022/07/29 11:19:42;;;;;;;6.40;3.30;;;;;;;28.29;31.09;101450.59;5060739;28;20652;-69
2022/07/29 11:22:09;;;;;;;5.90;3.60;;;;;;;27.02;32.49;101454.25;5061231;28;20262;-71
2022/07/29 11:24:35;;;;;;;5.23;3.40;;;;;;;27.88;31.38;101441.94;5061172;28;20486;-70
2022/07/29 11:27:11;;;;;;;10.83;3.30;;;;;;;27.36;33.04;101450.84;5060136;28;20412;-68
2022/07/29 11:29:56;;;;;;;4.40;3.13;;;;;;;26.11;34.56;101453.94;5060759;28;20903;-69
2022/07/29 11:32:24;;;;;;;6.27;3.20;;;;;;;26.33;33.92;101456.53;5061095;28;20859;-68